LTAU/ASR METAR and TAF weather

Enter ICAO airport designator
Station Type Date Time Source
LTAU METAR 2021/08/05 04:50 UTC NOAA

LTAU 050450Z 05006KT CAVOK 19/12 Q1018 NOSIG


Station Type Date Time Source
LTAU Decoded METAR 2021/08/05 04:50 UTC NOAA

Kayseri / Erkilet, Turkey (LTAU) 38-47N 035-29E 1054M
Aug 05, 2021 - 12:50 AM EDT / 2021.08.05 0450 UTC
Wind: from the NE (050 degrees) at 7 MPH (6 KT):0
Visibility: greater than 7 mile(s):0
Temperature: 66 F (19 C)
Dew Point: 53 F (12 C)
Relative Humidity: 63%
Pressure (altimeter): 30.06 in. Hg (1018 hPa)
ob: LTAU 050450Z 05006KT CAVOK 19/12 Q1018 NOSIG
cycle: 5

Station Type Date Time Source
LTAU TAF 2021/08/05 06:03 UTC NOAA

TAF LTAU 050440Z 0506/0606 VRB02KT CAVOK
BECMG 0511/0513 35012KT
BECMG 0516/0519 VRB02KT

Example: see airport list